sensor_id;sensor_type;location;lat;lon;timestamp;P1;durP1;ratioP1;P2;durP2;ratioP2
37973;SDS011;23796;51.458;7.000;2023-01-28T00:01:20;10.65;;;7.90;;
37973;SDS011;23796;51.458;7.000;2023-01-28T00:03:48;9.52;;;8.48;;
37973;SDS011;23796;51.458;7.000;2023-01-28T00:06:16;10.27;;;8.70;;
37973;SDS011;23796;51.458;7.000;2023-01-28T00:08:43;16.10;;;8.52;;
37973;SDS011;23796;51.458;7.000;2023-01-28T00:11:09;9.73;;;7.72;;
37973;SDS011;23796;51.458;7.000;2023-01-28T00:13:36;8.45;;;7.18;;
37973;SDS011;23796;51.458;7.000;2023-01-28T00:16:03;8.68;;;7.50;;
37973;SDS011;23796;51.458;7.000;2023-01-28T00:18:31;10.00;;;7.20;;
37973;SDS011;23796;51.458;7.000;2023-01-28T00:21:02;6.55;;;5.43;;
37973;SDS011;23796;51.458;7.000;2023-01-28T00:23:34;7.07;;;6.03;;
37973;SDS011;23796;51.458;7.000;2023-01-28T00:26:02;6.15;;;5.55;;
37973;SDS011;23796;51.458;7.000;2023-01-28T00:28:30;8.43;;;6.45;;
37973;SDS011;23796;51.458;7.000;2023-01-28T00:30:58;6.53;;;5.75;;
37973;SDS011;23796;51.458;7.000;2023-01-28T00:33:30;7.78;;;6.18;;
37973;SDS011;23796;51.458;7.000;2023-01-28T00:35:56;8.80;;;6.40;;
37973;SDS011;23796;51.458;7.000;2023-01-28T00:38:23;7.00;;;6.13;;
37973;SDS011;23796;51.458;7.000;2023-01-28T00:40:48;7.28;;;5.93;;
37973;SDS011;23796;51.458;7.000;2023-01-28T00:43:14;7.43;;;6.53;;
37973;SDS011;23796;51.458;7.000;2023-01-28T00:45:40;7.60;;;6.80;;
37973;SDS011;23796;51.458;7.000;2023-01-28T00:48:05;8.93;;;7.78;;
37973;SDS011;23796;51.458;7.000;2023-01-28T00:50:31;9.32;;;8.00;;
37973;SDS011;23796;51.458;7.000;2023-01-28T00:52:57;9.60;;;7.72;;
37973;SDS011;23796;51.458;7.000;2023-01-28T00:55:22;9.50;;;7.85;;
37973;SDS011;23796;51.458;7.000;2023-01-28T00:57:48;9.23;;;7.88;;
37973;SDS011;23796;51.458;7.000;2023-01-28T01:00:14;8.68;;;7.40;;
37973;SDS011;23796;51.458;7.000;2023-01-28T01:02:40;7.55;;;6.30;;
37973;SDS011;23796;51.458;7.000;2023-01-28T01:05:06;7.47;;;5.32;;
37973;SDS011;23796;51.458;7.000;2023-01-28T01:07:32;5.47;;;4.40;;
37973;SDS011;23796;51.458;7.000;2023-01-28T01:10:17;4.25;;;3.25;;
37973;SDS011;23796;51.458;7.000;2023-01-28T01:12:46;5.85;;;3.90;;
37973;SDS011;23796;51.458;7.000;2023-01-28T01:15:12;6.65;;;4.05;;
37973;SDS011;23796;51.458;7.000;2023-01-28T01:17:39;5.53;;;3.75;;
37973;SDS011;23796;51.458;7.000;2023-01-28T01:20:07;6.55;;;4.00;;
37973;SDS011;23796;51.458;7.000;2023-01-28T01:22:37;5.03;;;3.83;;
37973;SDS011;23796;51.458;7.000;2023-01-28T01:25:03;6.10;;;4.20;;
37973;SDS011;23796;51.458;7.000;2023-01-28T01:27:30;6.28;;;4.50;;
37973;SDS011;23796;51.458;7.000;2023-01-28T01:29:56;7.45;;;5.18;;
37973;SDS011;23796;51.458;7.000;2023-01-28T01:32:22;7.18;;;5.28;;
37973;SDS011;23796;51.458;7.000;2023-01-28T01:34:49;9.50;;;5.70;;
37973;SDS011;23796;51.458;7.000;2023-01-28T01:37:17;7.20;;;5.03;;
37973;SDS011;23796;51.458;7.000;2023-01-28T01:39:43;6.40;;;5.55;;
37973;SDS011;23796;51.458;7.000;2023-01-28T01:42:12;8.80;;;6.35;;
37973;SDS011;23796;51.458;7.000;2023-01-28T01:47:41;7.07;;;5.78;;
37973;SDS011;23796;51.458;7.000;2023-01-28T01:50:23;7.30;;;6.53;;
37973;SDS011;23796;51.458;7.000;2023-01-28T01:53:17;7.57;;;6.18;;
37973;SDS011;23796;51.458;7.000;2023-01-28T01:55:47;9.57;;;7.53;;
37973;SDS011;23796;51.458;7.000;2023-01-28T01:58:16;10.45;;;7.30;;
37973;SDS011;23796;51.458;7.000;2023-01-28T02:00:47;9.75;;;8.75;;
37973;SDS011;23796;51.458;7.000;2023-01-28T02:03:12;11.02;;;9.88;;
37973;SDS011;23796;51.458;7.000;2023-01-28T02:05:41;10.07;;;9.07;;
37973;SDS011;23796;51.458;7.000;2023-01-28T02:08:06;8.02;;;7.00;;
37973;SDS011;23796;51.458;7.000;2023-01-28T02:10:51;9.15;;;6.57;;
37973;SDS011;23796;51.458;7.000;2023-01-28T02:13:21;7.50;;;5.60;;
37973;SDS011;23796;51.458;7.000;2023-01-28T02:15:51;7.00;;;5.40;;
37973;SDS011;23796;51.458;7.000;2023-01-28T02:18:17;7.03;;;5.07;;
37973;SDS011;23796;51.458;7.000;2023-01-28T02:32:04;5.72;;;4.45;;
37973;SDS011;23796;51.458;7.000;2023-01-28T02:37:18;6.18;;;4.72;;
37973;SDS011;23796;51.458;7.000;2023-01-28T02:39:50;6.53;;;4.30;;
37973;SDS011;23796;51.458;7.000;2023-01-28T02:42:24;5.50;;;4.25;;
37973;SDS011;23796;51.458;7.000;2023-01-28T02:44:56;5.95;;;4.32;;
37973;SDS011;23796;51.458;7.000;2023-01-28T02:47:22;5.65;;;4.45;;
37973;SDS011;23796;51.458;7.000;2023-01-28T02:50:13;5.53;;;4.30;;
37973;SDS011;23796;51.458;7.000;2023-01-28T02:58:14;6.18;;;4.60;;
37973;SDS011;23796;51.458;7.000;2023-01-28T03:01:21;6.95;;;5.38;;
37973;SDS011;23796;51.458;7.000;2023-01-28T03:04:01;6.50;;;5.25;;
37973;SDS011;23796;51.458;7.000;2023-01-28T03:06:34;7.10;;;5.68;;
37973;SDS011;23796;51.458;7.000;2023-01-28T03:09:05;6.53;;;5.78;;
37973;SDS011;23796;51.458;7.000;2023-01-28T03:14:36;5.97;;;4.55;;
37973;SDS011;23796;51.458;7.000;2023-01-28T03:17:27;5.47;;;4.13;;
37973;SDS011;23796;51.458;7.000;2023-01-28T03:20:36;5.65;;;4.60;;
37973;SDS011;23796;51.458;7.000;2023-01-28T03:23:27;5.65;;;4.55;;
37973;SDS011;23796;51.458;7.000;2023-01-28T03:26:26;6.35;;;4.50;;
37973;SDS011;23796;51.458;7.000;2023-01-28T03:29:14;6.05;;;4.28;;
37973;SDS011;23796;51.458;7.000;2023-01-28T03:32:00;5.50;;;4.22;;
37973;SDS011;23796;51.458;7.000;2023-01-28T03:34:45;5.45;;;4.18;;
37973;SDS011;23796;51.458;7.000;2023-01-28T03:37:31;5.70;;;4.43;;
37973;SDS011;23796;51.458;7.000;2023-01-28T03:40:06;5.55;;;4.50;;
37973;SDS011;23796;51.458;7.000;2023-01-28T03:42:32;5.45;;;4.47;;
37973;SDS011;23796;51.458;7.000;2023-01-28T03:44:58;6.15;;;4.72;;
37973;SDS011;23796;51.458;7.000;2023-01-28T03:47:26;6.70;;;4.80;;
37973;SDS011;23796;51.458;7.000;2023-01-28T03:49:54;6.55;;;4.70;;
37973;SDS011;23796;51.458;7.000;2023-01-28T03:52:24;5.25;;;4.20;;
37973;SDS011;23796;51.458;7.000;2023-01-28T03:54:54;5.80;;;4.47;;
37973;SDS011;23796;51.458;7.000;2023-01-28T03:57:22;6.68;;;4.53;;
37973;SDS011;23796;51.458;7.000;2023-01-28T03:59:50;5.30;;;4.80;;
37973;SDS011;23796;51.458;7.000;2023-01-28T04:02:16;5.88;;;4.80;;
37973;SDS011;23796;51.458;7.000;2023-01-28T04:04:43;5.95;;;4.82;;
37973;SDS011;23796;51.458;7.000;2023-01-28T04:07:10;6.20;;;5.05;;
37973;SDS011;23796;51.458;7.000;2023-01-28T04:09:39;5.55;;;4.80;;
37973;SDS011;23796;51.458;7.000;2023-01-28T04:12:06;8.57;;;4.75;;
37973;SDS011;23796;51.458;7.000;2023-01-28T04:14:34;6.07;;;4.03;;
37973;SDS011;23796;51.458;7.000;2023-01-28T04:17:00;6.25;;;4.65;;
37973;SDS011;23796;51.458;7.000;2023-01-28T04:19:26;11.30;;;4.93;;
37973;SDS011;23796;51.458;7.000;2023-01-28T04:21:52;4.85;;;4.35;;
37973;SDS011;23796;51.458;7.000;2023-01-28T04:24:20;5.25;;;3.88;;
37973;SDS011;23796;51.458;7.000;2023-01-28T04:26:46;5.45;;;4.40;;
37973;SDS011;23796;51.458;7.000;2023-01-28T04:29:14;5.18;;;4.18;;
37973;SDS011;23796;51.458;7.000;2023-01-28T04:31:42;5.05;;;3.70;;
37973;SDS011;23796;51.458;7.000;2023-01-28T04:34:11;6.05;;;3.85;;
37973;SDS011;23796;51.458;7.000;2023-01-28T04:36:36;8.07;;;4.57;;
37973;SDS011;23796;51.458;7.000;2023-01-28T04:39:02;8.73;;;6.38;;
37973;SDS011;23796;51.458;7.000;2023-01-28T04:41:28;6.80;;;4.32;;
37973;SDS011;23796;51.458;7.000;2023-01-28T04:43:53;5.47;;;4.35;;
37973;SDS011;23796;51.458;7.000;2023-01-28T04:46:21;7.28;;;4.28;;
37973;SDS011;23796;51.458;7.000;2023-01-28T04:48:47;6.65;;;4.40;;
37973;SDS011;23796;51.458;7.000;2023-01-28T04:51:12;6.70;;;4.35;;
37973;SDS011;23796;51.458;7.000;2023-01-28T04:53:40;7.40;;;5.63;;
37973;SDS011;23796;51.458;7.000;2023-01-28T04:56:06;6.72;;;5.32;;
37973;SDS011;23796;51.458;7.000;2023-01-28T04:58:32;5.80;;;5.20;;
37973;SDS011;23796;51.458;7.000;2023-01-28T05:00:58;9.45;;;4.95;;
37973;SDS011;23796;51.458;7.000;2023-01-28T05:03:24;6.88;;;5.68;;
37973;SDS011;23796;51.458;7.000;2023-01-28T05:05:50;6.97;;;5.35;;
37973;SDS011;23796;51.458;7.000;2023-01-28T05:08:16;9.05;;;6.43;;
37973;SDS011;23796;51.458;7.000;2023-01-28T05:10:43;6.72;;;5.70;;
37973;SDS011;23796;51.458;7.000;2023-01-28T05:13:08;5.80;;;5.20;;
37973;SDS011;23796;51.458;7.000;2023-01-28T05:15:36;6.35;;;5.25;;
37973;SDS011;23796;51.458;7.000;2023-01-28T05:18:02;6.55;;;4.88;;
37973;SDS011;23796;51.458;7.000;2023-01-28T05:20:28;8.55;;;5.07;;
37973;SDS011;23796;51.458;7.000;2023-01-28T05:22:54;10.18;;;5.45;;
37973;SDS011;23796;51.458;7.000;2023-01-28T05:25:19;5.75;;;4.80;;
37973;SDS011;23796;51.458;7.000;2023-01-28T05:27:49;6.15;;;4.70;;
37973;SDS011;23796;51.458;7.000;2023-01-28T05:30:16;7.43;;;5.28;;
37973;SDS011;23796;51.458;7.000;2023-01-28T05:32:42;6.65;;;5.20;;
37973;SDS011;23796;51.458;7.000;2023-01-28T05:35:08;6.45;;;4.75;;
37973;SDS011;23796;51.458;7.000;2023-01-28T05:37:33;11.48;;;5.07;;
37973;SDS011;23796;51.458;7.000;2023-01-28T05:39:59;7.10;;;4.70;;
37973;SDS011;23796;51.458;7.000;2023-01-28T05:42:25;8.95;;;5.18;;
37973;SDS011;23796;51.458;7.000;2023-01-28T05:44:50;5.70;;;5.00;;
37973;SDS011;23796;51.458;7.000;2023-01-28T05:47:16;5.65;;;4.85;;
37973;SDS011;23796;51.458;7.000;2023-01-28T05:49:41;7.65;;;5.47;;
37973;SDS011;23796;51.458;7.000;2023-01-28T05:52:07;7.18;;;5.15;;
37973;SDS011;23796;51.458;7.000;2023-01-28T05:54:33;6.40;;;5.28;;
37973;SDS011;23796;51.458;7.000;2023-01-28T05:56:58;5.30;;;4.45;;
37973;SDS011;23796;51.458;7.000;2023-01-28T05:59:24;6.47;;;5.15;;
37973;SDS011;23796;51.458;7.000;2023-01-28T06:01:50;6.88;;;5.05;;
37973;SDS011;23796;51.458;7.000;2023-01-28T06:04:15;7.35;;;5.10;;
37973;SDS011;23796;51.458;7.000;2023-01-28T06:06:43;6.35;;;4.75;;
37973;SDS011;23796;51.458;7.000;2023-01-28T06:09:09;6.20;;;5.07;;
37973;SDS011;23796;51.458;7.000;2023-01-28T06:11:34;5.85;;;4.53;;
37973;SDS011;23796;51.458;7.000;2023-01-28T06:14:00;5.40;;;4.50;;
37973;SDS011;23796;51.458;7.000;2023-01-28T06:16:26;5.32;;;4.82;;
37973;SDS011;23796;51.458;7.000;2023-01-28T06:18:53;5.38;;;4.45;;
37973;SDS011;23796;51.458;7.000;2023-01-28T06:21:19;5.90;;;5.20;;
37973;SDS011;23796;51.458;7.000;2023-01-28T06:23:45;7.43;;;5.07;;
37973;SDS011;23796;51.458;7.000;2023-01-28T06:26:13;5.05;;;4.55;;
37973;SDS011;23796;51.458;7.000;2023-01-28T06:28:38;6.38;;;5.00;;
37973;SDS011;23796;51.458;7.000;2023-01-28T06:31:04;6.63;;;5.45;;
37973;SDS011;23796;51.458;7.000;2023-01-28T06:33:30;6.70;;;5.32;;
37973;SDS011;23796;51.458;7.000;2023-01-28T06:35:56;6.13;;;5.50;;
37973;SDS011;23796;51.458;7.000;2023-01-28T06:38:22;7.18;;;5.13;;
37973;SDS011;23796;51.458;7.000;2023-01-28T06:40:53;6.93;;;5.43;;
37973;SDS011;23796;51.458;7.000;2023-01-28T06:43:20;7.38;;;5.88;;
37973;SDS011;23796;51.458;7.000;2023-01-28T06:45:51;7.88;;;5.55;;
37973;SDS011;23796;51.458;7.000;2023-01-28T06:48:22;6.70;;;5.93;;
37973;SDS011;23796;51.458;7.000;2023-01-28T06:50:48;7.82;;;6.10;;
37973;SDS011;23796;51.458;7.000;2023-01-28T06:53:14;7.93;;;5.93;;
37973;SDS011;23796;51.458;7.000;2023-01-28T06:55:40;6.88;;;5.45;;
37973;SDS011;23796;51.458;7.000;2023-01-28T06:58:06;5.07;;;4.55;;
37973;SDS011;23796;51.458;7.000;2023-01-28T07:00:32;5.07;;;4.53;;
37973;SDS011;23796;51.458;7.000;2023-01-28T07:03:00;6.25;;;5.15;;
37973;SDS011;23796;51.458;7.000;2023-01-28T07:05:25;7.75;;;4.88;;
37973;SDS011;23796;51.458;7.000;2023-01-28T07:07:53;9.43;;;5.22;;
37973;SDS011;23796;51.458;7.000;2023-01-28T07:10:24;6.65;;;5.43;;
37973;SDS011;23796;51.458;7.000;2023-01-28T07:12:49;5.65;;;5.05;;
37973;SDS011;23796;51.458;7.000;2023-01-28T07:15:18;6.95;;;5.10;;
37973;SDS011;23796;51.458;7.000;2023-01-28T07:17:44;6.72;;;4.60;;
37973;SDS011;23796;51.458;7.000;2023-01-28T07:20:13;7.38;;;5.88;;
37973;SDS011;23796;51.458;7.000;2023-01-28T07:22:40;8.48;;;5.57;;
37973;SDS011;23796;51.458;7.000;2023-01-28T07:25:09;6.03;;;5.43;;
37973;SDS011;23796;51.458;7.000;2023-01-28T07:27:36;8.50;;;5.85;;
37973;SDS011;23796;51.458;7.000;2023-01-28T07:30:02;7.70;;;6.38;;
37973;SDS011;23796;51.458;7.000;2023-01-28T07:32:31;9.23;;;5.75;;
37973;SDS011;23796;51.458;7.000;2023-01-28T07:34:56;6.68;;;5.97;;
37973;SDS011;23796;51.458;7.000;2023-01-28T07:37:22;6.60;;;5.88;;
37973;SDS011;23796;51.458;7.000;2023-01-28T07:39:48;6.60;;;6.00;;
37973;SDS011;23796;51.458;7.000;2023-01-28T07:42:14;7.13;;;6.05;;
37973;SDS011;23796;51.458;7.000;2023-01-28T07:44:39;7.07;;;6.38;;
37973;SDS011;23796;51.458;7.000;2023-01-28T07:47:05;9.63;;;6.82;;
37973;SDS011;23796;51.458;7.000;2023-01-28T07:49:34;8.68;;;7.00;;
37973;SDS011;23796;51.458;7.000;2023-01-28T07:51:59;9.73;;;7.78;;
37973;SDS011;23796;51.458;7.000;2023-01-28T07:54:25;7.65;;;6.35;;
37973;SDS011;23796;51.458;7.000;2023-01-28T07:56:51;8.63;;;7.20;;
37973;SDS011;23796;51.458;7.000;2023-01-28T07:59:17;9.15;;;8.02;;
37973;SDS011;23796;51.458;7.000;2023-01-28T08:01:42;8.05;;;7.00;;
37973;SDS011;23796;51.458;7.000;2023-01-28T08:04:08;8.40;;;6.72;;
37973;SDS011;23796;51.458;7.000;2023-01-28T08:06:34;8.13;;;6.97;;
37973;SDS011;23796;51.458;7.000;2023-01-28T08:09:02;7.80;;;7.00;;
37973;SDS011;23796;51.458;7.000;2023-01-28T08:11:36;8.15;;;7.35;;
37973;SDS011;23796;51.458;7.000;2023-01-28T08:14:02;7.03;;;6.13;;
37973;SDS011;23796;51.458;7.000;2023-01-28T08:16:29;7.35;;;6.45;;
37973;SDS011;23796;51.458;7.000;2023-01-28T08:18:55;7.20;;;6.38;;
37973;SDS011;23796;51.458;7.000;2023-01-28T08:21:29;8.05;;;6.00;;
37973;SDS011;23796;51.458;7.000;2023-01-28T08:23:55;8.45;;;7.20;;
37973;SDS011;23796;51.458;7.000;2023-01-28T08:29:18;11.30;;;8.27;;
37973;SDS011;23796;51.458;7.000;2023-01-28T08:37:52;9.27;;;8.38;;
37973;SDS011;23796;51.458;7.000;2023-01-28T08:40:18;10.38;;;8.00;;
37973;SDS011;23796;51.458;7.000;2023-01-28T08:42:47;8.73;;;7.30;;
37973;SDS011;23796;51.458;7.000;2023-01-28T08:45:17;8.80;;;7.35;;
37973;SDS011;23796;51.458;7.000;2023-01-28T08:47:56;10.98;;;7.28;;
37973;SDS011;23796;51.458;7.000;2023-01-28T08:50:25;10.02;;;8.48;;
37973;SDS011;23796;51.458;7.000;2023-01-28T08:52:58;9.32;;;8.13;;
37973;SDS011;23796;51.458;7.000;2023-01-28T08:55:28;8.85;;;7.95;;
37973;SDS011;23796;51.458;7.000;2023-01-28T08:57:54;9.93;;;7.65;;
37973;SDS011;23796;51.458;7.000;2023-01-28T09:00:21;7.85;;;7.05;;
37973;SDS011;23796;51.458;7.000;2023-01-28T09:02:50;8.15;;;6.90;;
37973;SDS011;23796;51.458;7.000;2023-01-28T09:05:17;7.63;;;6.82;;
37973;SDS011;23796;51.458;7.000;2023-01-28T09:07:45;8.82;;;6.75;;
37973;SDS011;23796;51.458;7.000;2023-01-28T09:10:12;8.48;;;6.43;;
37973;SDS011;23796;51.458;7.000;2023-01-28T09:12:38;8.73;;;7.18;;
37973;SDS011;23796;51.458;7.000;2023-01-28T09:15:06;9.70;;;7.18;;
37973;SDS011;23796;51.458;7.000;2023-01-28T09:17:32;9.07;;;7.50;;
37973;SDS011;23796;51.458;7.000;2023-01-28T09:19:58;10.65;;;7.53;;
37973;SDS011;23796;51.458;7.000;2023-01-28T09:22:23;15.73;;;7.85;;
37973;SDS011;23796;51.458;7.000;2023-01-28T09:24:49;8.45;;;7.45;;
37973;SDS011;23796;51.458;7.000;2023-01-28T09:27:14;9.82;;;7.55;;
37973;SDS011;23796;51.458;7.000;2023-01-28T09:29:40;11.55;;;7.80;;
37973;SDS011;23796;51.458;7.000;2023-01-28T09:32:06;9.05;;;8.02;;
37973;SDS011;23796;51.458;7.000;2023-01-28T09:34:34;9.57;;;8.30;;
37973;SDS011;23796;51.458;7.000;2023-01-28T09:37:02;9.40;;;7.45;;
37973;SDS011;23796;51.458;7.000;2023-01-28T09:39:27;9.48;;;7.80;;
37973;SDS011;23796;51.458;7.000;2023-01-28T09:44:34;9.40;;;8.47;;
37973;SDS011;23796;51.458;7.000;2023-01-28T09:47:36;9.13;;;8.23;;
37973;SDS011;23796;51.458;7.000;2023-01-28T09:50:10;12.27;;;8.63;;
37973;SDS011;23796;51.458;7.000;2023-01-28T09:52:47;10.15;;;8.45;;
37973;SDS011;23796;51.458;7.000;2023-01-28T09:55:14;9.65;;;8.65;;
37973;SDS011;23796;51.458;7.000;2023-01-28T09:58:02;11.20;;;9.10;;
37973;SDS011;23796;51.458;7.000;2023-01-28T10:00:53;8.25;;;7.38;;
37973;SDS011;23796;51.458;7.000;2023-01-28T10:03:32;9.60;;;8.60;;
37973;SDS011;23796;51.458;7.000;2023-01-28T10:08:56;8.23;;;7.05;;
37973;SDS011;23796;51.458;7.000;2023-01-28T10:17:13;7.30;;;6.50;;
37973;SDS011;23796;51.458;7.000;2023-01-28T10:19:46;8.25;;;6.55;;
37973;SDS011;23796;51.458;7.000;2023-01-28T10:22:17;8.63;;;7.68;;
37973;SDS011;23796;51.458;7.000;2023-01-28T10:24:52;9.85;;;8.85;;
37973;SDS011;23796;51.458;7.000;2023-01-28T10:27:28;10.65;;;8.57;;
37973;SDS011;23796;51.458;7.000;2023-01-28T10:29:55;10.75;;;9.65;;
37973;SDS011;23796;51.458;7.000;2023-01-28T10:32:37;11.15;;;9.88;;
37973;SDS011;23796;51.458;7.000;2023-01-28T10:35:37;12.77;;;10.02;;
37973;SDS011;23796;51.458;7.000;2023-01-28T10:38:06;13.68;;;10.85;;
37973;SDS011;23796;51.458;7.000;2023-01-28T10:40:37;9.75;;;8.82;;
37973;SDS011;23796;51.458;7.000;2023-01-28T10:43:05;9.70;;;8.80;;
37973;SDS011;23796;51.458;7.000;2023-01-28T10:48:33;9.43;;;8.52;;
37973;SDS011;23796;51.458;7.000;2023-01-28T10:51:02;11.02;;;9.07;;
37973;SDS011;23796;51.458;7.000;2023-01-28T10:56:02;9.45;;;8.55;;
37973;SDS011;23796;51.458;7.000;2023-01-28T10:58:33;9.32;;;8.32;;
37973;SDS011;23796;51.458;7.000;2023-01-28T11:01:02;11.10;;;9.88;;
37973;SDS011;23796;51.458;7.000;2023-01-28T11:03:29;10.00;;;8.85;;
37973;SDS011;23796;51.458;7.000;2023-01-28T11:05:58;10.30;;;8.55;;
37973;SDS011;23796;51.458;7.000;2023-01-28T11:08:25;11.50;;;8.90;;
37973;SDS011;23796;51.458;7.000;2023-01-28T11:10:52;11.63;;;8.93;;
37973;SDS011;23796;51.458;7.000;2023-01-28T11:13:20;10.23;;;9.15;;
37973;SDS011;23796;51.458;7.000;2023-01-28T11:15:52;11.63;;;10.50;;
37973;SDS011;23796;51.458;7.000;2023-01-28T11:18:25;12.15;;;10.57;;
37973;SDS011;23796;51.458;7.000;2023-01-28T11:21:00;9.48;;;8.57;;
37973;SDS011;23796;51.458;7.000;2023-01-28T11:23:37;10.25;;;9.02;;
37973;SDS011;23796;51.458;7.000;2023-01-28T11:26:20;12.60;;;11.05;;
37973;SDS011;23796;51.458;7.000;2023-01-28T11:28:56;11.02;;;9.98;;
37973;SDS011;23796;51.458;7.000;2023-01-28T11:31:22;10.50;;;8.10;;
37973;SDS011;23796;51.458;7.000;2023-01-28T11:36:25;8.57;;;7.65;;
37973;SDS011;23796;51.458;7.000;2023-01-28T11:39:15;10.52;;;8.50;;
37973;SDS011;23796;51.458;7.000;2023-01-28T11:41:43;9.32;;;8.40;;
37973;SDS011;23796;51.458;7.000;2023-01-28T11:58:33;13.38;;;10.15;;
37973;SDS011;23796;51.458;7.000;2023-01-28T12:07:15;13.05;;;11.15;;
37973;SDS011;23796;51.458;7.000;2023-01-28T12:12:42;13.45;;;11.68;;
37973;SDS011;23796;51.458;7.000;2023-01-28T12:21:09;13.05;;;11.10;;
37973;SDS011;23796;51.458;7.000;2023-01-28T12:43:00;15.23;;;12.80;;
37973;SDS011;23796;51.458;7.000;2023-01-28T12:45:44;15.20;;;13.07;;
37973;SDS011;23796;51.458;7.000;2023-01-28T12:48:21;12.93;;;11.32;;
37973;SDS011;23796;51.458;7.000;2023-01-28T12:51:15;14.10;;;12.27;;
37973;SDS011;23796;51.458;7.000;2023-01-28T12:54:10;11.82;;;10.63;;
37973;SDS011;23796;51.458;7.000;2023-01-28T12:56:49;12.00;;;10.77;;
37973;SDS011;23796;51.458;7.000;2023-01-28T13:07:26;12.15;;;10.85;;
37973;SDS011;23796;51.458;7.000;2023-01-28T13:10:04;11.93;;;10.73;;
37973;SDS011;23796;51.458;7.000;2023-01-28T13:12:37;10.82;;;9.73;;
37973;SDS011;23796;51.458;7.000;2023-01-28T13:17:57;11.30;;;10.20;;
37973;SDS011;23796;51.458;7.000;2023-01-28T13:20:35;15.57;;;10.65;;
37973;SDS011;23796;51.458;7.000;2023-01-28T13:23:25;11.73;;;10.13;;
37973;SDS011;23796;51.458;7.000;2023-01-28T13:26:25;12.88;;;11.25;;
37973;SDS011;23796;51.458;7.000;2023-01-28T13:29:06;11.65;;;9.57;;
37973;SDS011;23796;51.458;7.000;2023-01-28T13:31:41;12.13;;;10.93;;
37973;SDS011;23796;51.458;7.000;2023-01-28T13:34:31;12.15;;;10.95;;
37973;SDS011;23796;51.458;7.000;2023-01-28T13:37:14;12.55;;;10.85;;
37973;SDS011;23796;51.458;7.000;2023-01-28T13:39:54;11.65;;;10.38;;
37973;SDS011;23796;51.458;7.000;2023-01-28T13:42:28;11.52;;;10.32;;
37973;SDS011;23796;51.458;7.000;2023-01-28T13:44:55;11.13;;;9.98;;
37973;SDS011;23796;51.458;7.000;2023-01-28T13:47:32;12.13;;;10.32;;
37973;SDS011;23796;51.458;7.000;2023-01-28T13:50:02;16.58;;;11.68;;
37973;SDS011;23796;51.458;7.000;2023-01-28T14:09:16;13.18;;;10.77;;
37973;SDS011;23796;51.458;7.000;2023-01-28T14:12:26;13.02;;;10.82;;
37973;SDS011;23796;51.458;7.000;2023-01-28T14:15:12;13.00;;;11.07;;
37973;SDS011;23796;51.458;7.000;2023-01-28T14:17:57;12.93;;;11.07;;
37973;SDS011;23796;51.458;7.000;2023-01-28T14:20:25;12.10;;;10.85;;
37973;SDS011;23796;51.458;7.000;2023-01-28T14:23:05;11.82;;;10.63;;
37973;SDS011;23796;51.458;7.000;2023-01-28T14:29:01;12.93;;;11.32;;
37973;SDS011;23796;51.458;7.000;2023-01-28T14:31:35;14.07;;;11.68;;
37973;SDS011;23796;51.458;7.000;2023-01-28T14:36:51;11.57;;;10.25;;
37973;SDS011;23796;51.458;7.000;2023-01-28T14:39:21;13.70;;;11.25;;
37973;SDS011;23796;51.458;7.000;2023-01-28T14:41:56;12.50;;;11.20;;
37973;SDS011;23796;51.458;7.000;2023-01-28T14:58:49;13.05;;;10.80;;
37973;SDS011;23796;51.458;7.000;2023-01-28T15:01:20;13.25;;;11.02;;
37973;SDS011;23796;51.458;7.000;2023-01-28T15:03:48;12.45;;;11.20;;
37973;SDS011;23796;51.458;7.000;2023-01-28T15:06:17;12.82;;;11.52;;
37973;SDS011;23796;51.458;7.000;2023-01-28T15:08:47;14.90;;;11.77;;
37973;SDS011;23796;51.458;7.000;2023-01-28T15:11:13;14.07;;;11.93;;
37973;SDS011;23796;51.458;7.000;2023-01-28T15:13:44;13.98;;;11.57;;
37973;SDS011;23796;51.458;7.000;2023-01-28T15:16:15;16.00;;;12.73;;
37973;SDS011;23796;51.458;7.000;2023-01-28T15:18:44;14.13;;;12.25;;
37973;SDS011;23796;51.458;7.000;2023-01-28T15:21:10;13.40;;;12.07;;
37973;SDS011;23796;51.458;7.000;2023-01-28T15:23:37;12.98;;;11.63;;
37973;SDS011;23796;51.458;7.000;2023-01-28T15:26:18;14.23;;;12.45;;
37973;SDS011;23796;51.458;7.000;2023-01-28T15:28:48;14.48;;;12.48;;
37973;SDS011;23796;51.458;7.000;2023-01-28T15:36:45;15.00;;;12.75;;
37973;SDS011;23796;51.458;7.000;2023-01-28T15:39:17;14.07;;;12.43;;
37973;SDS011;23796;51.458;7.000;2023-01-28T15:41:56;16.88;;;13.55;;
37973;SDS011;23796;51.458;7.000;2023-01-28T15:44:35;15.45;;;12.75;;
37973;SDS011;23796;51.458;7.000;2023-01-28T15:49:49;17.05;;;13.93;;
37973;SDS011;23796;51.458;7.000;2023-01-28T15:52:19;15.07;;;13.00;;
37973;SDS011;23796;51.458;7.000;2023-01-28T15:54:49;17.58;;;12.93;;
37973;SDS011;23796;51.458;7.000;2023-01-28T15:57:17;16.30;;;13.85;;
37973;SDS011;23796;51.458;7.000;2023-01-28T15:59:44;17.42;;;13.75;;
37973;SDS011;23796;51.458;7.000;2023-01-28T16:02:21;15.68;;;13.52;;
37973;SDS011;23796;51.458;7.000;2023-01-28T16:07:52;16.38;;;13.73;;
37973;SDS011;23796;51.458;7.000;2023-01-28T16:10:25;17.52;;;15.48;;
37973;SDS011;23796;51.458;7.000;2023-01-28T16:13:05;22.85;;;15.35;;
37973;SDS011;23796;51.458;7.000;2023-01-28T16:15:44;19.08;;;15.90;;
37973;SDS011;23796;51.458;7.000;2023-01-28T16:21:11;18.40;;;15.80;;
37973;SDS011;23796;51.458;7.000;2023-01-28T16:26:33;19.90;;;15.65;;
37973;SDS011;23796;51.458;7.000;2023-01-28T16:29:21;22.13;;;17.02;;
37973;SDS011;23796;51.458;7.000;2023-01-28T16:31:45;23.00;;;16.63;;
37973;SDS011;23796;51.458;7.000;2023-01-28T16:34:13;18.63;;;16.25;;
37973;SDS011;23796;51.458;7.000;2023-01-28T16:36:39;21.70;;;16.98;;
37973;SDS011;23796;51.458;7.000;2023-01-28T16:39:05;19.63;;;17.40;;
37973;SDS011;23796;51.458;7.000;2023-01-28T16:41:36;22.00;;;18.50;;
37973;SDS011;23796;51.458;7.000;2023-01-28T16:44:10;20.58;;;16.83;;
37973;SDS011;23796;51.458;7.000;2023-01-28T16:46:37;24.77;;;18.02;;
37973;SDS011;23796;51.458;7.000;2023-01-28T16:49:03;20.65;;;18.45;;
37973;SDS011;23796;51.458;7.000;2023-01-28T16:51:29;19.35;;;17.33;;
37973;SDS011;23796;51.458;7.000;2023-01-28T16:53:57;21.85;;;17.60;;
37973;SDS011;23796;51.458;7.000;2023-01-28T16:56:24;24.60;;;18.63;;
37973;SDS011;23796;51.458;7.000;2023-01-28T16:58:51;21.05;;;18.33;;
37973;SDS011;23796;51.458;7.000;2023-01-28T17:01:18;20.73;;;16.65;;
37973;SDS011;23796;51.458;7.000;2023-01-28T17:03:43;20.40;;;16.90;;
37973;SDS011;23796;51.458;7.000;2023-01-28T17:06:10;19.90;;;17.58;;
37973;SDS011;23796;51.458;7.000;2023-01-28T17:08:42;23.75;;;17.63;;
37973;SDS011;23796;51.458;7.000;2023-01-28T17:11:09;21.30;;;17.83;;
37973;SDS011;23796;51.458;7.000;2023-01-28T17:13:38;22.23;;;18.42;;
37973;SDS011;23796;51.458;7.000;2023-01-28T17:16:06;22.92;;;18.27;;
37973;SDS011;23796;51.458;7.000;2023-01-28T17:18:37;21.88;;;18.80;;
37973;SDS011;23796;51.458;7.000;2023-01-28T17:21:09;24.13;;;19.83;;
37973;SDS011;23796;51.458;7.000;2023-01-28T17:23:35;22.45;;;18.38;;
37973;SDS011;23796;51.458;7.000;2023-01-28T17:26:07;24.33;;;19.08;;
37973;SDS011;23796;51.458;7.000;2023-01-28T17:28:34;23.80;;;19.35;;
37973;SDS011;23796;51.458;7.000;2023-01-28T17:31:05;22.38;;;18.45;;
37973;SDS011;23796;51.458;7.000;2023-01-28T17:33:38;23.70;;;17.55;;
37973;SDS011;23796;51.458;7.000;2023-01-28T17:36:05;22.48;;;18.65;;
37973;SDS011;23796;51.458;7.000;2023-01-28T17:38:31;22.48;;;18.58;;
37973;SDS011;23796;51.458;7.000;2023-01-28T17:41:06;22.63;;;18.10;;
37973;SDS011;23796;51.458;7.000;2023-01-28T17:43:33;23.27;;;17.90;;
37973;SDS011;23796;51.458;7.000;2023-01-28T17:45:59;21.30;;;17.95;;